Mudah untuk digunakan

vPilot, dan Squawkbox

VATSIM memiliki 3 pilot client yang berbeda. Semuanya memberikan kemudahan yang sama bagi pengguna untuk online ke dalam simulasi VATSIM. Semuanya memiliki panduan yang lengkap untuk membantu Anda menggunakan aplikasi ini.

Radar client yang seperti aslinya

EuroScope & VRC

VATSIM memiliki radar client yang sangat advanced karena mensimulasikan secara nyata bagaimana seorang ATC didunia nyata. Walaupun dikatakan advanced, kedua radar client ini sangat mudah untuk digunakan. Dan hal menarik lainnya, VATSIM menggunakan ATIS dalam bentuk suara!

Dengan VATSIM, Anda dapat belajar lebih banyak tentang aviasi.
Anda juga dapat berdiskusi dengan pencinta aviasi lainnya.

Pengalaman Yang Tidak Terlupakan

Aktifitas Terkini

Tidak ada ATC yang online!

Pilot

Callsign Nama Rute
IHS78Dace Nicmane EDDL (1313735)WIII-WMKK
MEN19MENGOME ARMAND (1216292)UUDD-WIII

*Informasi ini bisa saja tidak mutakhir.

METAR

Nama Bandara - Lokasi (ICAO) METAR
Sultan Hasanuddin - Makassar (WAAA)METAR WAAA 160930Z 06005KT 6000 -TSRA FEW017 BKN018 24/25 Q1011|NOSIG|RMK CB IN APCH=
I Gusti Ngurah Rai - Denpasar (WADD)METAR WADD 161000Z 15028KT 9999 FEW017 30/23 Q1010|NOSIG=
Ahmad Yani - Semarang (WAHS)METAR WAHS 161030Z 31008KT 8000 SCT013 30/24 Q1010=
Juanda - Surabaya (WARR)METAR WARR 161030Z 05006KT 9999 FEW020 29/22 Q1010|NOSIG=
Soekarno Hatta - Jakarta (WIII)METAR WIII 161030Z 35005KT 9999 FEW020 29/24 Q1010|NOSIG=
Halim Perdana Kusuma - Jakarta (WIHH)METAR WIHH 161000Z 32005KT 7000 SCT020 29/24 Q1009|NOSIG=
Kualanamu International Airport - Deli Serdang (WIMM)METAR WIMM 161030Z 36006KT 340V060 8000 BKN017 28/24 Q1009|NOSIG=

*METAR didapatkan dari BMKG. Informasi ini bisa saja tidak mutakhir.

VATSIM Indonesia vACC VATSIM South East Asia VATSIM Asia